TimeMST,TemperatureF,Dew PointF,Humidity,Sea Level PressureIn,VisibilityMPH,Wind Direction,Wind SpeedMPH,Gust SpeedMPH,PrecipitationIn,Events,Conditions,WindDirDegrees,DateUTC
12:53 AM,15.1,3.9,61,30.02,10.0,NW,18.4,28.8,N/A,,Clear,310,2012-12-09 07:53:00
1:53 AM,12.9,3.0,65,30.05,10.0,NNW,18.4,25.3,N/A,,Clear,330,2012-12-09 08:53:00
2:53 AM,12.9,3.0,65,30.06,10.0,WNW,13.8,-,N/A,,Clear,290,2012-12-09 09:53:00
3:53 AM,12.9,3.0,65,30.09,10.0,NW,20.7,33.4,N/A,,Clear,310,2012-12-09 10:53:00
4:53 AM,10.0,1.0,67,30.16,10.0,North,12.7,21.9,N/A,,Clear,360,2012-12-09 11:53:00
5:53 AM,8.1,-0.0,70,30.21,10.0,NNW,11.5,23.0,N/A,,Clear,330,2012-12-09 12:53:00
6:53 AM,8.1,-0.0,70,30.25,10.0,NNW,13.8,18.4,N/A,,Clear,340,2012-12-09 13:53:00
7:53 AM,7.0,-2.0,67,30.25,10.0,NNW,19.6,27.6,N/A,,Clear,340,2012-12-09 14:53:00
8:53 AM,10.9,-0.0,61,30.26,10.0,North,26.5,36.8,N/A,,Clear,350,2012-12-09 15:53:00
9:53 AM,12.9,-2.9,49,30.29,10.0,North,23.0,35.7,N/A,,Clear,350,2012-12-09 16:53:00
10:53 AM,14.0,-0.9,52,30.32,10.0,NNW,17.3,32.2,N/A,,Clear,340,2012-12-09 17:53:00
11:53 AM,15.1,-0.9,49,30.30,10.0,North,21.9,28.8,N/A,,Clear,360,2012-12-09 18:53:00
12:53 PM,16.0,-0.0,49,30.28,10.0,North,17.3,25.3,N/A,,Clear,360,2012-12-09 19:53:00
1:53 PM,15.1,-0.9,49,30.30,10.0,North,16.1,25.3,N/A,,Mostly Cloudy,10,2012-12-09 20:53:00
2:53 PM,16.0,-0.9,47,30.31,10.0,North,11.5,-,N/A,,Clear,10,2012-12-09 21:53:00
3:53 PM,14.0,-2.0,49,30.32,10.0,NNE,8.1,-,N/A,,Clear,20,2012-12-09 22:53:00
4:53 PM,12.0,-2.0,53,30.35,10.0,North,3.5,-,N/A,,Clear,350,2012-12-09 23:53:00
5:53 PM,10.0,-0.9,61,30.37,10.0,West,4.6,-,N/A,,Clear,260,2012-12-10 00:53:00
6:53 PM,8.1,-2.0,64,30.37,10.0,WNW,4.6,-,N/A,,Clear,290,2012-12-10 01:53:00
7:53 PM,3.0,-5.1,69,30.37,10.0,WSW,8.1,-,N/A,,Clear,250,2012-12-10 02:53:00
8:53 PM,9.0,-2.9,59,30.29,10.0,SW,10.4,-,N/A,,Clear,230,2012-12-10 03:53:00
9:53 PM,8.1,-2.9,61,30.25,10.0,SW,12.7,-,N/A,,Clear,230,2012-12-10 04:53:00
10:53 PM,8.1,-2.0,64,30.21,10.0,SW,10.4,-,N/A,,Clear,230,2012-12-10 05:53:00
11:53 PM,7.0,-2.0,67,30.19,10.0,SW,10.4,-,N/A,,Clear,220,2012-12-10 06:53:00